Time;durP1;ratioP1;P1;durP2;ratioP2;P2;SDS_P1;SDS_P2;PMS_P1;PMS_P2;Temp;Humidity;BMP_temperature;BMP_pressure;BME280_temperature;BME280_humidity;BME280_pressure;Samples;Min_cycle;Max_cycle;Signal;HPM_P1;HPM_P2
2021/10/11 00:03:43;;;;;;;46.03;43.03;;;;;;;11.18;100.00;103139.41;1940892;74;32991;-66
2021/10/11 00:09:07;;;;;;;47.37;44.07;;;;;;;11.19;100.00;103143.05;1940969;74;32973;-66
2021/10/11 00:14:31;;;;;;;46.73;43.30;;;;;;;11.07;100.00;103143.52;1941045;74;33483;-66
2021/10/11 00:19:56;;;;;;;45.43;42.47;;;;;;;10.99;100.00;103139.14;1940992;74;32980;-66
2021/10/11 00:25:20;;;;;;;46.90;43.87;;;;;;;11.07;100.00;103140.74;1940855;74;33055;-66
2021/10/11 00:30:45;;;;;;;44.70;41.77;;;;;;;10.93;100.00;103140.91;1940815;74;33128;-66
2021/10/11 00:36:09;;;;;;;46.47;43.47;;;;;;;10.95;100.00;103136.52;1941062;74;33467;-66
2021/10/11 00:41:33;;;;;;;45.77;42.63;;;;;;;10.87;100.00;103139.57;1940856;74;33145;-66
2021/10/11 00:46:59;;;;;;;46.97;43.50;;;;;;;10.75;100.00;103146.45;1940901;74;32991;-66
2021/10/11 00:52:24;;;;;;;45.53;42.53;;;;;;;10.72;100.00;103155.27;1940803;74;32982;-67
2021/10/11 00:57:49;;;;;;;44.70;41.63;;;;;;;10.73;100.00;103149.16;1940792;74;33037;-66
2021/10/11 01:03:33;;;;;;;46.40;43.40;;;;;;;10.73;100.00;103153.33;2009689;71;32946;-67
2021/10/11 01:08:59;;;;;;;46.73;43.73;;;;;;;10.69;100.00;103151.56;1940984;74;32983;-67
2021/10/11 01:14:25;;;;;;;48.50;45.23;;;;;;;10.70;100.00;103158.80;1940804;74;33140;-67
2021/10/11 01:16:58;;;;;;;47.60;44.40;;;;;;;10.44;100.00;103154.89;1904762;75;26273;-66
2021/10/11 01:22:22;;;;;;;46.13;42.90;;;;;;;10.57;100.00;103149.20;1940815;74;33002;-66
2021/10/11 01:27:47;;;;;;;49.60;46.40;;;;;;;10.59;100.00;103154.00;1940849;74;33089;-67
2021/10/11 01:33:13;;;;;;;45.73;42.53;;;;;;;10.42;100.00;103152.89;1940779;74;32979;-67
2021/10/11 01:38:39;;;;;;;48.43;45.03;;;;;;;10.41;100.00;103155.34;1941042;74;33498;-66
2021/10/11 01:44:04;;;;;;;47.93;44.70;;;;;;;10.44;100.00;103162.69;1940843;74;32990;-66
2021/10/11 01:49:29;;;;;;;47.57;44.27;;;;;;;10.43;100.00;103165.72;1940801;74;33062;-66
2021/10/11 01:54:54;;;;;;;47.70;44.40;;;;;;;10.47;100.00;103160.86;1940998;74;33062;-65
2021/10/11 02:00:19;;;;;;;46.53;43.23;;;;;;;10.38;100.00;103164.15;1941178;74;33545;-67
2021/10/11 02:05:44;;;;;;;47.57;44.30;;;;;;;10.37;100.00;103148.55;1940895;74;33003;-66
2021/10/11 02:11:09;;;;;;;48.70;45.30;;;;;;;10.23;100.00;103145.57;1941038;74;33484;-67
2021/10/11 02:16:33;;;;;;;49.47;45.93;;;;;;;10.23;100.00;103142.80;1940832;74;32994;-67
2021/10/11 02:21:58;;;;;;;47.93;44.53;;;;;;;10.18;100.00;103142.65;1941017;74;33006;-66
2021/10/11 02:27:22;;;;;;;48.10;44.90;;;;;;;10.12;100.00;103135.17;1941026;74;33462;-66
2021/10/11 02:32:46;;;;;;;47.13;43.60;;;;;;;10.06;100.00;103120.27;1941010;74;32974;-66
2021/10/11 02:38:11;;;;;;;48.30;44.53;;;;;;;10.13;100.00;103122.47;1941112;74;33041;-66
2021/10/11 02:43:37;;;;;;;46.77;43.33;;;;;;;10.16;100.00;103132.29;1940949;74;33082;-66
2021/10/11 02:49:02;;;;;;;49.10;45.60;;;;;;;10.16;100.00;103125.34;1940923;74;33614;-66
2021/10/11 02:54:26;;;;;;;47.93;44.53;;;;;;;10.12;100.00;103129.09;1940833;74;33127;-66
2021/10/11 03:00:13;;;;;;;46.80;43.33;;;;;;;10.13;100.00;103131.33;2009577;71;32897;-68
2021/10/11 03:05:38;;;;;;;48.20;44.47;;;;;;;10.05;100.00;103128.31;1940963;74;33201;-67
2021/10/11 03:11:03;;;;;;;46.67;43.27;;;;;;;10.06;100.00;103128.06;1940962;74;33050;-67
2021/10/11 03:16:34;;;;;;;48.60;45.00;;;;;;;9.97;100.00;103134.96;1941158;74;33453;-66
2021/10/11 03:21:59;;;;;;;48.20;44.70;;;;;;;10.00;100.00;103150.34;1941039;74;33145;-66
2021/10/11 03:27:23;;;;;;;47.93;44.37;;;;;;;10.01;100.00;103137.59;1940950;74;33067;-67
2021/10/11 03:32:48;;;;;;;48.00;44.40;;;;;;;10.05;100.00;103134.68;1940913;74;33057;-68
2021/10/11 03:38:12;;;;;;;48.47;44.70;;;;;;;9.88;100.00;103129.38;1940851;74;32986;-69
2021/10/11 03:43:37;;;;;;;48.20;44.60;;;;;;;9.94;100.00;103119.30;1941142;74;33521;-66
2021/10/11 03:49:03;;;;;;;49.13;45.73;;;;;;;9.76;100.00;103121.45;1940915;74;32985;-66
2021/10/11 03:54:27;;;;;;;48.60;44.77;;;;;;;9.87;100.00;103117.13;1940868;74;32994;-66
2021/10/11 03:59:53;;;;;;;46.97;43.57;;;;;;;9.90;100.00;103119.44;1941022;74;33493;-66
2021/10/11 04:05:17;;;;;;;49.20;45.50;;;;;;;9.82;100.00;103115.55;1940915;74;33050;-67
2021/10/11 04:10:50;;;;;;;49.73;45.77;;;;;;;9.79;100.00;103122.42;1940901;74;33104;-66
2021/10/11 04:16:10;;;;;;;47.93;44.60;;;;;;;9.47;100.00;103117.92;1940866;74;33008;-66
2021/10/11 04:21:34;;;;;;;50.00;46.00;;;;;;;9.36;100.00;103128.35;1941026;74;33569;-66
2021/10/11 04:27:01;;;;;;;49.40;45.40;;;;;;;9.50;100.00;103146.07;1940983;74;33049;-66
2021/10/11 04:32:25;;;;;;;47.47;43.93;;;;;;;9.66;100.00;103142.47;1940836;74;32990;-66
2021/10/11 04:37:50;;;;;;;49.73;46.03;;;;;;;9.36;100.00;103133.90;1940928;74;32976;-66
2021/10/11 04:43:16;;;;;;;49.47;45.83;;;;;;;9.23;100.00;103132.05;1940915;74;33092;-67
2021/10/11 04:48:40;;;;;;;49.33;45.57;;;;;;;9.28;100.00;103130.85;1941120;74;33536;-66
2021/10/11 04:54:05;;;;;;;48.23;44.43;;;;;;;9.53;100.00;103117.05;1940937;74;33056;-67
2021/10/11 04:59:30;;;;;;;48.90;45.47;;;;;;;9.56;100.00;103127.16;1941098;74;33559;-66
2021/10/11 05:04:55;;;;;;;48.70;45.10;;;;;;;9.54;100.00;103125.13;1941128;74;33043;-66
2021/10/11 05:10:19;;;;;;;48.50;44.80;;;;;;;9.70;100.00;103136.25;1940902;74;32988;-68
2021/10/11 05:15:44;;;;;;;51.07;47.20;;;;;;;9.69;100.00;103128.14;1940945;74;33047;-66
2021/10/11 05:21:08;;;;;;;47.53;43.93;;;;;;;9.72;100.00;103142.41;1940880;74;33058;-68
2021/10/11 05:26:34;;;;;;;47.77;44.07;;;;;;;9.86;100.00;103154.28;1941221;74;33525;-66
2021/10/11 05:31:58;;;;;;;48.13;44.30;;;;;;;9.90;100.00;103153.61;1941100;74;32973;-66
2021/10/11 05:37:23;;;;;;;50.03;46.33;;;;;;;9.89;100.00;103140.80;1940993;74;33039;-66
2021/10/11 05:42:48;;;;;;;49.53;45.20;;;;;;;9.83;100.00;103150.04;1972330;72;33407;-68
2021/10/11 05:48:12;;;;;;;47.70;44.30;;;;;;;9.83;100.00;103163.92;1940954;74;32982;-68
2021/10/11 05:53:37;;;;;;;49.47;45.20;;;;;;;9.92;100.00;103143.14;1940999;74;33034;-66
2021/10/11 05:59:03;;;;;;;49.50;45.57;;;;;;;9.89;100.00;103154.67;1940961;74;32968;-66
2021/10/11 06:04:27;;;;;;;47.60;44.00;;;;;;;9.89;100.00;103151.91;1940764;74;32983;-66
2021/10/11 06:09:52;;;;;;;47.27;43.67;;;;;;;9.75;100.00;103153.09;1941033;74;32991;-67
2021/10/11 06:15:16;;;;;;;48.97;45.30;;;;;;;9.70;100.00;103158.45;1941129;74;33520;-69
2021/10/11 06:20:41;;;;;;;47.03;43.43;;;;;;;9.58;100.00;103167.18;1941299;74;33466;-67
2021/10/11 06:26:06;;;;;;;49.50;45.30;;;;;;;9.51;100.00;103166.34;1940858;74;33043;-66
2021/10/11 06:31:31;;;;;;;48.13;44.33;;;;;;;9.51;100.00;103163.03;1940891;74;33056;-67
2021/10/11 06:36:55;;;;;;;47.00;43.37;;;;;;;9.59;100.00;103181.34;1941075;74;33572;-67
2021/10/11 06:42:20;;;;;;;49.07;45.20;;;;;;;9.56;100.00;103192.36;1940894;74;32987;-66
2021/10/11 06:47:46;;;;;;;49.47;45.10;;;;;;;9.57;100.00;103179.34;1940931;74;32986;-66
2021/10/11 06:53:11;;;;;;;48.97;45.23;;;;;;;9.33;100.00;103192.56;1940866;74;32973;-67
2021/10/11 06:58:37;;;;;;;49.70;45.67;;;;;;;9.25;100.00;103207.54;1941054;74;33479;-67
2021/10/11 07:04:03;;;;;;;48.27;44.53;;;;;;;9.36;100.00;103207.41;1940980;74;32990;-69
2021/10/11 07:09:27;;;;;;;48.20;44.53;;;;;;;9.35;100.00;103222.34;1940889;74;32983;-68
2021/10/11 07:14:52;;;;;;;47.80;44.37;;;;;;;9.51;100.00;103224.61;1940969;74;32975;-69
2021/10/11 07:20:16;;;;;;;45.90;42.40;;;;;;;9.62;100.00;103223.08;1940885;74;33101;-69
2021/10/11 07:25:41;;;;;;;47.70;44.40;;;;;;;9.93;100.00;103228.11;1940898;74;32990;-70
2021/10/11 07:31:06;;;;;;;48.10;44.67;;;;;;;10.06;100.00;103233.59;1940918;74;33164;-70
2021/10/11 07:36:31;;;;;;;48.33;44.87;;;;;;;10.34;100.00;103235.14;1941064;74;33590;-68
2021/10/11 07:42:15;;;;;;;49.93;46.13;;;;;;;10.45;100.00;103244.13;2009684;71;32823;-69
2021/10/11 07:47:39;;;;;;;47.53;43.73;;;;;;;10.51;100.00;103251.57;1940864;74;32993;-66
2021/10/11 07:53:06;;;;;;;47.07;43.50;;;;;;;10.64;100.00;103261.19;1940993;74;32986;-66
2021/10/11 07:58:30;;;;;;;45.43;41.93;;;;;;;10.56;100.00;103253.67;1941149;74;33603;-66
2021/10/11 08:03:55;;;;;;;44.63;41.30;;;;;;;10.70;100.00;103259.41;1941035;74;33001;-70
2021/10/11 08:09:20;;;;;;;45.70;42.20;;;;;;;10.77;100.00;103265.24;1941079;74;32991;-68
2021/10/11 08:14:45;;;;;;;46.90;43.30;;;;;;;10.88;100.00;103260.31;1941124;74;33565;-69
2021/10/11 08:20:12;;;;;;;46.70;43.20;;;;;;;10.97;100.00;103274.78;1940897;74;33012;-69
2021/10/11 08:25:37;;;;;;;46.07;42.20;;;;;;;11.11;100.00;103268.55;1941154;74;33541;-69
2021/10/11 08:31:04;;;;;;;45.37;41.67;;;;;;;11.39;100.00;103267.47;1941024;74;33537;-68
2021/10/11 08:36:30;;;;;;;43.37;40.27;;;;;;;11.59;100.00;103277.84;1940908;74;31121;-68
2021/10/11 08:41:56;;;;;;;41.87;38.63;;;;;;;11.88;100.00;103272.03;1940910;74;33053;-68
2021/10/11 08:47:26;;;;;;;41.33;37.90;;;;;;;12.25;100.00;103260.23;1941133;74;33012;-69
2021/10/11 08:52:52;;;;;;;42.53;39.50;;;;;;;12.15;100.00;103264.16;1940946;74;33085;-69
2021/10/11 08:55:24;;;;;;;43.27;39.90;;;;;;;12.01;100.00;103271.86;1904923;75;26285;-68
2021/10/11 09:01:07;;;;;;;42.43;38.93;;;;;;;12.04;100.00;103258.83;1941082;74;33047;-68
2021/10/11 09:06:32;;;;;;;42.87;39.57;;;;;;;12.10;100.00;103264.02;1940934;74;33147;-68
2021/10/11 09:12:06;;;;;;;43.97;40.23;;;;;;;12.28;100.00;103263.39;1941113;74;33007;-68
2021/10/11 09:17:33;;;;;;;41.73;38.60;;;;;;;12.72;100.00;103256.99;1941043;74;33430;-68
2021/10/11 09:23:05;;;;;;;41.10;38.00;;;;;;;12.67;100.00;103268.02;1941009;74;33050;-68
2021/10/11 09:28:31;;;;;;;40.83;37.80;;;;;;;12.74;100.00;103251.50;1940914;74;32978;-70
2021/10/11 09:34:02;;;;;;;42.63;39.67;;;;;;;12.74;100.00;103255.68;1940857;74;33053;-69
2021/10/11 09:39:28;;;;;;;40.33;37.23;;;;;;;12.88;100.00;103246.50;1941033;74;33484;-71
2021/10/11 09:44:54;;;;;;;39.00;36.03;;;;;;;13.04;100.00;103252.77;1940734;74;32972;-69
2021/10/11 09:50:22;;;;;;;40.10;37.27;;;;;;;13.12;100.00;103255.23;1940586;74;33058;-68
2021/10/11 09:55:48;;;;;;;39.70;36.67;;;;;;;13.09;100.00;103238.09;1940822;74;33528;-68
2021/10/11 10:01:13;;;;;;;38.40;35.57;;;;;;;13.17;100.00;103245.58;1940663;74;32959;-68
2021/10/11 10:06:39;;;;;;;36.70;34.13;;;;;;;13.29;100.00;103226.02;1941079;74;33544;-68
2021/10/11 10:12:08;;;;;;;36.03;33.70;;;;;;;13.27;100.00;103230.13;1940860;74;33038;-70
2021/10/11 10:17:35;;;;;;;36.80;34.10;;;;;;;13.31;100.00;103210.39;1941096;74;33500;-70
2021/10/11 10:23:06;;;;;;;37.93;34.97;;;;;;;13.51;100.00;103211.70;1941076;74;33032;-68
2021/10/11 10:28:49;;;;;;;35.10;32.50;;;;;;;13.42;100.00;103220.16;1940983;74;32943;-68
2021/10/11 10:34:28;;;;;;;35.27;32.90;;;;;;;13.35;100.00;103209.66;1940926;74;33013;-67
2021/10/11 10:39:57;;;;;;;34.90;32.40;;;;;;;13.46;100.00;103207.40;1940771;74;33049;-70
2021/10/11 10:45:29;;;;;;;34.43;32.07;;;;;;;13.67;100.00;103203.92;1941053;74;33506;-67
2021/10/11 10:50:56;;;;;;;36.80;34.47;;;;;;;13.82;100.00;103185.78;1940952;74;33009;-68
2021/10/11 10:56:22;;;;;;;35.50;33.00;;;;;;;13.92;100.00;103199.92;1941081;74;33602;-68
2021/10/11 11:02:05;;;;;;;33.07;30.87;;;;;;;14.12;100.00;103205.87;1940950;74;33052;-71
2021/10/11 11:07:32;;;;;;;34.80;32.50;;;;;;;13.82;100.00;103201.97;1940844;74;33002;-66
2021/10/11 11:13:00;;;;;;;35.33;33.10;;;;;;;14.09;100.00;103199.41;1940890;74;33056;-69
2021/10/11 11:18:29;;;;;;;34.83;32.50;;;;;;;14.02;100.00;103190.34;1941015;74;32953;-69
2021/10/11 11:23:53;;;;;;;36.10;33.90;;;;;;;13.87;100.00;103178.86;1940815;74;33056;-69
2021/10/11 11:29:18;;;;;;;34.67;32.37;;;;;;;14.31;100.00;103184.14;1941093;74;33493;-69
2021/10/11 11:34:46;;;;;;;34.33;32.33;;;;;;;14.11;100.00;103186.89;1941076;74;33029;-70
2021/10/11 11:40:13;;;;;;;36.17;33.83;;;;;;;13.92;100.00;103180.36;1941074;74;33534;-70
2021/10/11 11:45:41;;;;;;;35.70;33.53;;;;;;;13.78;100.00;103178.42;1940903;74;32927;-69
2021/10/11 11:51:10;;;;;;;35.13;32.73;;;;;;;14.00;100.00;103178.00;1941136;74;33028;-68
2021/10/11 11:56:39;;;;;;;34.17;31.80;;;;;;;14.21;100.00;103171.38;1940847;74;33009;-69
2021/10/11 12:02:06;;;;;;;34.23;31.73;;;;;;;14.23;100.00;103163.59;1941153;74;33570;-68
2021/10/11 12:07:33;;;;;;;32.03;30.10;;;;;;;14.57;100.00;103154.12;1940910;74;32957;-68
2021/10/11 12:13:19;;;;;;;33.03;31.03;;;;;;;14.61;100.00;103153.05;2003868;70;32935;-69
2021/10/11 12:18:55;;;;;;;31.07;29.03;;;;;;;14.50;100.00;103139.48;1941053;74;33044;-71
2021/10/11 12:24:23;;;;;;;31.20;28.90;;;;;;;14.53;100.00;103139.81;1940857;74;33051;-69
2021/10/11 12:29:50;;;;;;;31.00;29.03;;;;;;;14.48;100.00;103125.73;1941129;74;33501;-67
2021/10/11 12:35:23;;;;;;;29.03;27.03;;;;;;;14.82;100.00;103120.92;1941087;74;32962;-68
2021/10/11 12:40:48;;;;;;;29.67;27.70;;;;;;;14.61;100.00;103085.37;1940899;74;32952;-67
2021/10/11 12:46:16;;;;;;;33.33;30.73;;;;;;;14.70;100.00;103099.76;1941179;74;33453;-70
2021/10/11 12:51:50;;;;;;;29.27;27.53;;;;;;;16.42;100.00;103093.20;1941051;74;33487;-70
2021/10/11 12:57:15;;;;;;;33.17;31.17;;;;;;;16.70;100.00;103090.88;1940963;74;32947;-69
2021/10/11 13:02:40;;;;;;;34.63;32.50;;;;;;;15.27;100.00;103082.03;1940910;74;33060;-66
2021/10/11 13:08:09;;;;;;;30.53;28.53;;;;;;;15.27;100.00;103077.28;1940930;74;32995;-70
2021/10/11 13:13:34;;;;;;;32.33;30.20;;;;;;;15.21;100.00;103077.47;1938314;74;33066;-70
2021/10/11 13:18:59;;;;;;;29.97;28.10;;;;;;;15.30;100.00;103069.74;1940866;74;33075;-70
2021/10/11 13:24:23;;;;;;;32.20;30.10;;;;;;;15.61;100.00;103072.90;1941066;74;32995;-69
2021/10/11 13:30:21;;;;;;;30.30;28.40;;;;;;;15.51;100.00;103079.79;1941060;74;33039;-66
2021/10/11 15:58:56;;;;;;;31.70;29.63;;;;;;;15.94;100.00;103002.56;1941104;74;33490;-69
2021/10/11 16:04:19;;;;;;;28.97;27.13;;;;;;;15.77;100.00;102990.11;1940891;74;31172;-68
2021/10/11 16:09:43;;;;;;;28.10;26.27;;;;;;;15.74;100.00;102995.41;1940878;74;33031;-69
2021/10/11 16:15:15;;;;;;;28.63;26.93;;;;;;;15.56;100.00;102991.60;1941077;74;33521;-71
2021/10/11 16:20:41;;;;;;;30.10;28.23;;;;;;;15.54;100.00;102985.41;1940951;74;32998;-72
2021/10/11 16:26:07;;;;;;;35.77;33.57;;;;;;;15.32;100.00;103000.30;1940866;74;33085;-70
2021/10/11 16:31:32;;;;;;;39.87;37.17;;;;;;;15.14;100.00;102999.84;1940895;74;33104;-69
2021/10/11 16:36:56;;;;;;;41.57;38.93;;;;;;;14.96;100.00;103004.69;1940816;74;32991;-68
2021/10/11 16:42:22;;;;;;;41.63;39.13;;;;;;;14.89;100.00;102999.02;1940847;74;33001;-76
2021/10/11 16:47:53;;;;;;;44.30;41.73;;;;;;;14.90;100.00;103003.48;1941066;74;33080;-69
2021/10/11 16:53:18;;;;;;;47.37;44.03;;;;;;;14.84;100.00;103006.79;1941099;74;33542;-71
2021/10/11 16:58:42;;;;;;;49.07;45.97;;;;;;;14.58;100.00;103016.81;1941061;74;33550;-69
2021/10/11 17:04:25;;;;;;;48.33;45.10;;;;;;;14.37;100.00;103009.80;2009768;70;33057;-69
2021/10/11 17:09:49;;;;;;;51.20;47.73;;;;;;;14.14;100.00;103017.81;1941024;74;33494;-72
2021/10/11 17:15:14;;;;;;;49.17;45.87;;;;;;;14.13;100.00;103014.16;1940862;74;33073;-69
2021/10/11 17:20:39;;;;;;;51.00;47.60;;;;;;;14.06;100.00;103025.23;1940837;74;32990;-68
2021/10/11 17:26:06;;;;;;;50.87;47.70;;;;;;;13.92;100.00;103039.25;1940848;74;33073;-69
2021/10/11 17:31:31;;;;;;;50.33;47.10;;;;;;;13.73;100.00;103037.83;1940824;74;33055;-71
2021/10/11 17:36:55;;;;;;;52.13;48.70;;;;;;;13.69;100.00;103030.51;1940987;74;33527;-69
2021/10/11 17:42:20;;;;;;;53.37;49.67;;;;;;;13.35;100.00;103030.17;1941096;74;33447;-69
2021/10/11 17:47:46;;;;;;;56.03;52.17;;;;;;;13.32;100.00;103039.87;1940876;74;33070;-69
2021/10/11 17:53:33;;;;;;;55.10;51.27;;;;;;;13.21;100.00;103045.83;2003575;70;33397;-73
2021/10/11 17:59:06;;;;;;;52.07;48.67;;;;;;;12.99;100.00;103044.78;1941067;74;33661;-71
2021/10/11 18:04:31;;;;;;;54.93;51.33;;;;;;;12.95;100.00;103032.42;1941040;74;33084;-70
2021/10/11 18:09:58;;;;;;;53.53;49.60;;;;;;;12.87;100.00;103038.95;1941032;74;33118;-68
2021/10/11 18:15:23;;;;;;;56.00;51.90;;;;;;;13.07;100.00;103035.16;1940968;74;33033;-69
2021/10/11 18:20:49;;;;;;;53.40;49.23;;;;;;;13.03;100.00;103039.00;1940879;74;33057;-70
2021/10/11 18:26:13;;;;;;;54.23;50.23;;;;;;;12.75;100.00;103053.75;1940827;74;32973;-69
2021/10/11 18:31:39;;;;;;;56.80;52.97;;;;;;;12.74;100.00;103061.84;1941100;74;33574;-68
2021/10/11 18:37:05;;;;;;;54.77;50.60;;;;;;;12.77;100.00;103059.95;1941043;74;33469;-69
2021/10/11 18:42:29;;;;;;;56.77;52.07;;;;;;;12.74;100.00;103056.27;1941137;74;33054;-69
2021/10/11 18:47:54;;;;;;;54.73;50.90;;;;;;;12.74;100.00;103059.05;1940915;74;33017;-71
2021/10/11 18:53:19;;;;;;;55.77;51.90;;;;;;;12.62;100.00;103060.17;1941073;74;33460;-72
2021/10/11 18:58:49;;;;;;;55.50;51.40;;;;;;;12.52;100.00;103055.20;1941164;74;33439;-71
2021/10/11 19:04:15;;;;;;;57.77;53.67;;;;;;;12.43;100.00;103058.06;1941105;74;33443;-73
2021/10/11 19:09:42;;;;;;;58.47;54.47;;;;;;;12.28;100.00;103073.87;1940942;74;33030;-66
2021/10/11 19:15:09;;;;;;;59.93;55.63;;;;;;;12.27;100.00;103071.34;1941147;74;33600;-68
2021/10/11 19:20:38;;;;;;;59.53;54.97;;;;;;;12.43;100.00;103068.36;1941171;74;33535;-72
2021/10/11 19:26:03;;;;;;;59.87;55.43;;;;;;;12.39;100.00;103055.47;1941104;74;33439;-70
2021/10/11 19:31:31;;;;;;;56.20;52.03;;;;;;;12.34;100.00;103049.77;1940945;74;32968;-71
2021/10/11 19:36:57;;;;;;;58.63;54.60;;;;;;;12.33;100.00;103055.88;1941141;74;33017;-70
2021/10/11 19:42:23;;;;;;;57.73;53.37;;;;;;;12.32;100.00;103053.36;1940687;74;33108;-70
2021/10/11 19:48:09;;;;;;;57.97;53.70;;;;;;;12.14;100.00;103052.08;2008897;71;32827;-72
2021/10/11 19:53:34;;;;;;;58.00;53.60;;;;;;;12.30;100.00;103053.59;1940673;74;33035;-69
2021/10/11 19:59:01;;;;;;;56.97;52.87;;;;;;;12.29;100.00;103053.28;1940755;74;33493;-70
2021/10/11 20:04:26;;;;;;;56.43;52.33;;;;;;;12.39;100.00;103056.86;1940785;74;33533;-73
2021/10/11 20:09:50;;;;;;;58.37;54.07;;;;;;;12.19;100.00;103046.64;1940705;74;33041;-70
2021/10/11 20:15:15;;;;;;;55.70;51.50;;;;;;;12.22;100.00;103053.11;1940796;74;33049;-72
2021/10/11 20:20:41;;;;;;;55.97;51.83;;;;;;;12.11;100.00;103054.80;1940852;74;33485;-69
2021/10/11 20:26:06;;;;;;;58.10;53.80;;;;;;;12.03;100.00;103059.33;1940692;74;32957;-69
2021/10/11 20:31:31;;;;;;;59.73;55.57;;;;;;;12.00;100.00;103062.61;1940694;74;32961;-70
2021/10/11 20:37:00;;;;;;;57.77;53.67;;;;;;;11.99;100.00;103060.05;1940756;74;33485;-71
2021/10/11 20:42:24;;;;;;;59.40;55.23;;;;;;;11.79;100.00;103047.33;1940661;74;33117;-70
2021/10/11 20:48:08;;;;;;;62.20;57.90;;;;;;;11.82;100.00;103020.93;2009016;70;32913;-67
2021/10/11 20:53:34;;;;;;;60.77;56.57;;;;;;;11.76;100.00;103016.34;1940635;74;32960;-71
2021/10/11 20:59:00;;;;;;;60.40;56.33;;;;;;;11.82;100.00;103018.14;1940642;74;32952;-71
2021/10/11 21:04:27;;;;;;;59.80;55.57;;;;;;;11.64;100.00;103025.16;1940867;74;33653;-67
2021/10/11 21:09:55;;;;;;;58.87;54.33;;;;;;;11.57;100.00;103030.00;1940687;74;33049;-72
2021/10/11 21:15:20;;;;;;;60.50;56.30;;;;;;;11.38;100.00;103027.28;1940635;74;32960;-70
2021/10/11 21:21:09;;;;;;;64.47;60.20;;;;;;;11.28;100.00;103023.39;2009586;71;33011;-70
2021/10/11 21:26:36;;;;;;;59.97;56.07;;;;;;;11.34;100.00;103019.64;1940761;74;33404;-69
2021/10/11 21:32:01;;;;;;;62.60;58.43;;;;;;;11.49;100.00;103016.43;1940877;74;32956;-69
2021/10/11 21:37:27;;;;;;;62.67;57.97;;;;;;;11.77;100.00;103028.61;1940766;74;33415;-70
2021/10/11 21:42:52;;;;;;;60.33;55.97;;;;;;;11.68;100.00;103038.36;1940599;74;32969;-69
2021/10/11 21:48:18;;;;;;;59.70;55.10;;;;;;;11.64;100.00;103028.80;1940894;74;33023;-69
2021/10/11 21:53:42;;;;;;;58.77;54.37;;;;;;;11.66;100.00;103023.85;1940668;74;33017;-69
2021/10/11 21:59:08;;;;;;;58.57;54.43;;;;;;;11.77;100.00;103031.39;1940624;74;33045;-70
2021/10/11 22:04:33;;;;;;;54.77;50.63;;;;;;;11.76;100.00;103017.19;1940852;74;33451;-69
2021/10/11 22:09:59;;;;;;;57.40;53.10;;;;;;;11.62;100.00;103002.30;1940646;74;32975;-69
2021/10/11 22:15:24;;;;;;;56.47;52.37;;;;;;;11.62;100.00;103006.47;1940769;74;32975;-69
2021/10/11 22:20:49;;;;;;;56.03;51.77;;;;;;;11.66;100.00;103002.97;1940746;74;33013;-69
2021/10/11 22:26:13;;;;;;;54.77;50.60;;;;;;;11.57;100.00;102997.45;1940674;74;33036;-69
2021/10/11 22:31:38;;;;;;;59.40;55.07;;;;;;;11.47;100.00;103006.09;1940726;74;32963;-69
2021/10/11 22:37:02;;;;;;;58.13;53.70;;;;;;;11.43;100.00;102996.81;1940854;74;33071;-69
2021/10/11 22:42:26;;;;;;;55.17;51.20;;;;;;;11.38;100.00;102991.67;1940840;74;33041;-69
2021/10/11 22:47:51;;;;;;;55.33;51.00;;;;;;;11.41;100.00;102998.15;1940790;74;33454;-69
2021/10/11 22:53:16;;;;;;;54.13;50.27;;;;;;;11.37;100.00;102995.00;1940866;74;33139;-69
2021/10/11 22:58:41;;;;;;;56.23;51.93;;;;;;;11.51;100.00;102995.61;1940646;74;33044;-74
2021/10/11 23:04:05;;;;;;;55.67;51.73;;;;;;;11.49;100.00;102991.38;1940723;74;31134;-69
2021/10/11 23:09:31;;;;;;;54.97;51.00;;;;;;;11.44;100.00;102986.53;1940892;74;32961;-69
2021/10/11 23:14:55;;;;;;;56.23;51.73;;;;;;;11.39;100.00;102979.44;1940803;74;33499;-69
2021/10/11 23:20:20;;;;;;;55.13;50.67;;;;;;;11.33;100.00;102974.30;1940639;74;32966;-69
2021/10/11 23:25:46;;;;;;;54.60;50.53;;;;;;;11.17;100.00;102974.11;1940777;74;33457;-69
2021/10/11 23:31:10;;;;;;;56.63;52.40;;;;;;;11.19;100.00;102965.85;1940875;74;33545;-69
2021/10/11 23:36:36;;;;;;;54.23;50.43;;;;;;;11.11;100.00;102961.17;1940716;74;33142;-69
2021/10/11 23:42:00;;;;;;;54.27;50.27;;;;;;;11.10;100.00;102965.03;1940693;74;32961;-70
2021/10/11 23:47:25;;;;;;;57.97;53.37;;;;;;;10.90;100.00;102957.85;1940632;74;33033;-69
2021/10/11 23:52:50;;;;;;;57.80;53.60;;;;;;;10.78;100.00;102946.38;1940751;74;33036;-70
